Terminal Aerodrome Forecast
Issued by NWS

Home | Current Version | Previous Version | Text Only | Print | Product List | Glossary Off
Versions: 1 2 3 4 5 6 7 8 9 10 11 12 13 14 15 16 17 18

000
FTUS43 KABR 301100
TAFMBG
TAF
KMBG 301129Z 3012/0112 14009KT P6SM SKC WS015/20035KT
     FM301400 17014G23KT P6SM SKC
     FM302200 31013G22KT P6SM VCSH FEW080 BKN120
     FM010100 34008KT P6SM BKN250=

USA.gov is the U.S. government's official web portal to all federal, state and local government web resources and services.